createdAt,value
2019-04-26T00:02:56.488Z,8.94
2019-04-26T00:05:44.067Z,8.83
2019-04-26T00:08:31.939Z,8.93
2019-04-26T00:11:34.913Z,8.89
2019-04-26T00:14:40.330Z,8.96
2019-04-26T00:17:34.924Z,8.90
2019-04-26T00:20:22.607Z,8.75
2019-04-26T00:23:10.755Z,8.71
2019-04-26T00:25:58.988Z,8.65
2019-04-26T00:28:46.514Z,8.95
2019-04-26T00:31:34.207Z,8.70
2019-04-26T00:34:21.983Z,8.74
2019-04-26T00:37:09.804Z,8.83
2019-04-26T00:40:02.700Z,8.78
2019-04-26T00:42:50.101Z,9.04
2019-04-26T00:45:38.905Z,8.96
2019-04-26T00:48:26.449Z,9.09
2019-04-26T00:51:15.228Z,9.20
2019-04-26T00:54:03.081Z,9.17
2019-04-26T00:56:50.941Z,9.36
2019-04-26T00:59:38.589Z,9.28
2019-04-26T01:02:48.748Z,9.23
2019-04-26T01:05:37.870Z,9.19
2019-04-26T01:08:25.747Z,9.15
2019-04-26T01:11:13.335Z,9.33
2019-04-26T01:14:01.117Z,9.24
2019-04-26T01:16:48.754Z,9.37
2019-04-26T01:19:38.227Z,9.44
2019-04-26T01:22:29.509Z,9.16
2019-04-26T01:25:53.666Z,8.80
2019-04-26T01:28:46.584Z,8.89
2019-04-26T01:31:38.530Z,8.82
2019-04-26T01:34:26.226Z,8.88
2019-04-26T01:37:13.868Z,8.93
2019-04-26T01:40:06.509Z,9.04
2019-04-26T01:43:20.206Z,9.07
2019-04-26T01:46:15.912Z,9.11
2019-04-26T01:49:06.753Z,8.83
2019-04-26T01:52:00.338Z,8.80
2019-04-26T01:54:48.045Z,8.89
2019-04-26T01:57:35.792Z,8.73
2019-04-26T02:00:41.537Z,8.77
2019-04-26T02:03:29.946Z,8.74
2019-04-26T02:06:25.217Z,8.80
2019-04-26T02:09:08.748Z,8.63
2019-04-26T02:11:56.225Z,8.59
2019-04-26T02:14:44.254Z,8.62
2019-04-26T02:17:31.607Z,8.83
2019-04-26T02:20:59.202Z,8.49
2019-04-26T02:24:12.063Z,8.79
2019-04-26T02:27:00.679Z,8.84
2019-04-26T02:29:48.561Z,8.70
2019-04-26T02:32:37.046Z,8.82
2019-04-26T02:35:26.549Z,8.75
2019-04-26T02:38:13.643Z,8.79
2019-04-26T02:41:01.153Z,8.53
2019-04-26T02:43:50.429Z,8.73
2019-04-26T02:46:46.040Z,8.85
2019-04-26T02:49:39.498Z,8.79
2019-04-26T02:52:52.883Z,8.85
2019-04-26T02:56:11.447Z,8.78
2019-04-26T02:59:23.145Z,8.90
2019-04-26T03:02:21.935Z,8.85
2019-04-26T03:05:10.004Z,8.71
2019-04-26T03:08:07.298Z,8.93
2019-04-26T03:11:17.984Z,8.98
2019-04-26T03:14:23.836Z,9.01
2019-04-26T03:17:24.637Z,9.01
2019-04-26T03:20:14.879Z,8.96
2019-04-26T03:23:45.811Z,8.98
2019-04-26T03:26:35.646Z,9.06
2019-04-26T03:29:34.818Z,8.88
2019-04-26T03:33:06.405Z,8.75
2019-04-26T03:36:18.699Z,8.87
2019-04-26T03:39:18.460Z,8.86
2019-04-26T03:42:44.024Z,8.91
2019-04-26T03:46:02.135Z,8.93
2019-04-26T03:49:35.608Z,8.73
2019-04-26T03:53:10.195Z,8.42
2019-04-26T03:56:56.031Z,8.30
2019-04-26T04:00:39.321Z,8.20
2019-04-26T04:03:55.125Z,8.26
2019-04-26T04:07:02.232Z,8.25
2019-04-26T04:09:32.996Z,8.19
2019-04-26T04:12:47.673Z,8.23
2019-04-26T04:15:42.599Z,8.11
2019-04-26T04:18:32.065Z,8.13
2019-04-26T04:21:38.617Z,8.24
2019-04-26T04:24:31.062Z,8.24
2019-04-26T04:27:34.701Z,8.15
2019-04-26T04:30:40.611Z,8.07
2019-04-26T04:33:50.103Z,8.01
2019-04-26T04:36:50.592Z,7.89
2019-04-26T04:40:09.764Z,7.90
2019-04-26T04:43:27.090Z,7.88
2019-04-26T04:46:35.551Z,7.89
2019-04-26T04:49:38.951Z,7.73
2019-04-26T04:52:53.551Z,7.68
2019-04-26T04:56:03.657Z,7.68
2019-04-26T04:58:53.877Z,7.58
2019-04-26T05:02:21.102Z,7.47
2019-04-26T05:05:30.039Z,7.37
2019-04-26T05:08:58.649Z,7.36
2019-04-26T05:12:09.598Z,7.22
2019-04-26T05:15:05.233Z,7.06
2019-04-26T05:18:05.327Z,7.03
2019-04-26T05:21:27.893Z,7.20
2019-04-26T05:24:36.952Z,7.23
2019-04-26T05:27:48.181Z,7.03
2019-04-26T05:31:12.826Z,7.08
2019-04-26T05:34:21.606Z,7.25
2019-04-26T05:37:47.837Z,7.39
2019-04-26T05:41:01.234Z,7.40
2019-04-26T05:44:19.851Z,7.42
2019-04-26T05:47:37.625Z,7.47
2019-04-26T05:51:11.956Z,7.52
2019-04-26T05:54:42.505Z,7.51
2019-04-26T05:57:52.727Z,7.47
2019-04-26T06:01:14.009Z,7.38
2019-04-26T06:04:31.222Z,7.37
2019-04-26T06:07:38.741Z,7.37
2019-04-26T06:10:36.704Z,7.44
2019-04-26T06:14:12.393Z,7.48
2019-04-26T06:17:49.103Z,7.51
2019-04-26T06:20:47.337Z,7.56
2019-04-26T06:23:55.885Z,7.59
2019-04-26T06:27:22.225Z,7.60
2019-04-26T06:30:24.871Z,7.66
2019-04-26T06:33:49.340Z,7.58
2019-04-26T06:36:54.504Z,7.41
2019-04-26T06:39:54.966Z,7.51
2019-04-26T06:43:12.883Z,7.47
2019-04-26T06:46:51.775Z,7.62
2019-04-26T06:50:19.527Z,7.68
2019-04-26T06:53:34.662Z,7.73
2019-04-26T06:57:09.626Z,7.86
2019-04-26T07:00:27.704Z,7.78
2019-04-26T07:03:51.532Z,7.97
2019-04-26T07:07:07.493Z,8.02
2019-04-26T07:10:09.080Z,7.72
2019-04-26T07:13:28.093Z,7.56
2019-04-26T07:16:32.176Z,7.55
2019-04-26T07:19:55.096Z,7.39
2019-04-26T07:23:32.291Z,7.31
2019-04-26T07:26:53.919Z,7.48
2019-04-26T07:30:07.303Z,7.08
2019-04-26T07:33:38.515Z,7.12
2019-04-26T07:37:15.331Z,6.93
2019-04-26T07:40:48.631Z,7.04
2019-04-26T07:44:09.749Z,7.30
2019-04-26T07:47:06.403Z,7.19
2019-04-26T07:50:44.248Z,7.33
2019-04-26T07:54:07.412Z,7.41
2019-04-26T07:57:26.799Z,7.41
2019-04-26T08:00:19.571Z,7.47
2019-04-26T08:03:18.082Z,7.53
2019-04-26T08:06:15.520Z,7.42
2019-04-26T08:09:26.035Z,7.35
2019-04-26T08:12:06.230Z,7.38
2019-04-26T08:15:14.367Z,7.60
2019-04-26T08:18:11.710Z,7.70
2019-04-26T08:21:09.955Z,7.85
2019-04-26T08:24:06.358Z,7.80
2019-04-26T08:27:23.085Z,7.93
2019-04-26T08:30:15.749Z,8.01
2019-04-26T08:33:07.535Z,8.25
2019-04-26T08:35:55.339Z,8.19
2019-04-26T08:38:44.023Z,7.90
2019-04-26T08:41:35.190Z,8.25
2019-04-26T08:44:44.524Z,8.43
2019-04-26T08:47:53.508Z,8.47
2019-04-26T08:50:45.868Z,8.66
2019-04-26T08:53:35.150Z,8.66
2019-04-26T08:56:27.267Z,8.56
2019-04-26T08:59:22.177Z,8.48
2019-04-26T09:02:25.817Z,8.42
2019-04-26T09:05:35.718Z,8.38
2019-04-26T09:08:28.578Z,8.36
2019-04-26T09:11:25.846Z,8.42
2019-04-26T09:14:08.795Z,8.27
2019-04-26T09:16:56.427Z,7.93
2019-04-26T09:19:43.848Z,8.32
2019-04-26T09:22:49.597Z,8.25
2019-04-26T09:25:43.637Z,8.32
2019-04-26T09:28:52.980Z,8.45
2019-04-26T09:31:45.335Z,8.43
2019-04-26T09:34:32.993Z,8.46
2019-04-26T09:37:20.392Z,8.39
2019-04-26T09:40:10.640Z,8.31
2019-04-26T09:43:15.171Z,8.25
2019-04-26T09:46:20.114Z,8.32
2019-04-26T09:49:20.029Z,8.29
2019-04-26T09:52:12.266Z,8.19
2019-04-26T09:54:59.876Z,8.16
2019-04-26T09:57:47.389Z,8.14
2019-04-26T10:00:35.170Z,8.16
2019-04-26T10:03:23.145Z,8.08
2019-04-26T10:06:10.823Z,8.11
2019-04-26T10:08:58.491Z,8.05
2019-04-26T10:11:51.144Z,8.07
2019-04-26T10:15:05.739Z,7.98
2019-04-26T10:17:53.476Z,8.02
2019-04-26T10:20:40.883Z,8.03
2019-04-26T10:23:28.362Z,8.02
2019-04-26T10:26:16.287Z,8.07
2019-04-26T10:29:03.867Z,8.17
2019-04-26T10:31:51.709Z,7.85
2019-04-26T10:34:42.663Z,7.97
2019-04-26T10:37:39.297Z,7.91
2019-04-26T10:40:19.372Z,7.98
2019-04-26T10:43:08.042Z,8.00
2019-04-26T10:45:55.622Z,8.12
2019-04-26T10:48:45.436Z,8.18
2019-04-26T10:51:41.885Z,8.25
2019-04-26T10:54:32.165Z,8.27
2019-04-26T10:57:27.573Z,8.35
2019-04-26T11:00:23.548Z,8.34
2019-04-26T11:03:11.076Z,8.31
2019-04-26T11:05:58.652Z,8.14
2019-04-26T11:08:46.305Z,8.16
2019-04-26T11:11:40.153Z,8.17
2019-04-26T11:14:27.643Z,8.17
2019-04-26T11:17:16.464Z,8.18
2019-04-26T11:20:06.239Z,8.20
2019-04-26T11:22:54.361Z,8.18
2019-04-26T11:25:42.108Z,8.19
2019-04-26T11:28:29.749Z,8.29
2019-04-26T11:31:17.555Z,8.35
2019-04-26T11:34:05.818Z,8.38
2019-04-26T11:36:54.574Z,8.44
2019-04-26T11:39:42.214Z,8.43
2019-04-26T11:42:29.421Z,8.39
2019-04-26T11:45:17.461Z,8.42
2019-04-26T11:48:05.685Z,8.41
2019-04-26T11:50:53.725Z,8.45
2019-04-26T11:53:44.763Z,8.44
2019-04-26T11:56:33.993Z,8.39
2019-04-26T11:59:20.164Z,8.41
2019-04-26T12:02:08.354Z,8.23
2019-04-26T12:05:13.098Z,8.25
2019-04-26T12:08:04.838Z,8.27
2019-04-26T12:10:52.679Z,8.19
2019-04-26T12:13:40.001Z,8.17
2019-04-26T12:16:27.356Z,8.15
2019-04-26T12:19:18.251Z,8.18
2019-04-26T12:22:08.137Z,8.18
2019-04-26T12:24:53.543Z,8.16
2019-04-26T12:27:41.204Z,8.19
2019-04-26T12:30:28.899Z,8.21
2019-04-26T12:33:17.810Z,8.20
2019-04-26T12:36:09.519Z,8.22
2019-04-26T12:38:58.243Z,8.17
2019-04-26T12:41:45.075Z,8.25
2019-04-26T12:44:41.219Z,8.27
2019-04-26T12:47:38.703Z,8.38
2019-04-26T12:50:24.921Z,8.50
2019-04-26T12:53:12.674Z,8.66
2019-04-26T12:56:00.341Z,8.88
2019-04-26T12:58:49.994Z,9.02
2019-04-26T13:01:37.353Z,9.14
2019-04-26T13:04:35.545Z,9.32
2019-04-26T13:07:24.065Z,9.47
2019-04-26T13:10:27.175Z,9.69
2019-04-26T13:13:39.743Z,9.84
2019-04-26T13:16:45.109Z,10.01
2019-04-26T13:19:32.757Z,10.12
2019-04-26T13:22:21.315Z,10.26
2019-04-26T13:25:15.484Z,10.40
2019-04-26T13:27:57.798Z,10.48
2019-04-26T13:30:45.512Z,10.51
2019-04-26T13:33:33.319Z,10.66
2019-04-26T13:36:20.724Z,10.71
2019-04-26T13:39:13.517Z,10.72
2019-04-26T13:42:05.992Z,10.64
2019-04-26T13:44:54.975Z,10.72
2019-04-26T13:48:10.457Z,10.58
2019-04-26T13:51:05.674Z,10.72
2019-04-26T13:53:54.343Z,10.82
2019-04-26T13:56:42.220Z,10.98
2019-04-26T13:59:31.654Z,11.20
2019-04-26T14:02:19.180Z,11.31
2019-04-26T14:05:07.022Z,11.31
2019-04-26T14:07:54.902Z,11.37
2019-04-26T14:10:45.580Z,11.42
2019-04-26T14:13:31.277Z,11.45
2019-04-26T14:16:21.228Z,11.49
2019-04-26T14:19:14.742Z,11.56
2019-04-26T14:21:57.543Z,11.57
2019-04-26T14:24:57.020Z,11.39
2019-04-26T14:27:50.057Z,11.37
2019-04-26T14:30:41.446Z,11.49
2019-04-26T14:33:30.401Z,11.22
2019-04-26T14:36:17.905Z,11.26
2019-04-26T14:39:10.745Z,11.07
2019-04-26T14:41:57.177Z,11.00
2019-04-26T14:44:49.700Z,10.81
2019-04-26T14:47:46.791Z,10.65
2019-04-26T14:50:23.970Z,10.58
2019-04-26T14:53:11.650Z,10.43
2019-04-26T14:55:59.402Z,10.36
2019-04-26T14:58:47.019Z,10.25
2019-04-26T15:01:49.968Z,10.25
2019-04-26T15:04:53.279Z,10.17
2019-04-26T15:07:49.463Z,10.23
2019-04-26T15:10:44.289Z,10.14
2019-04-26T15:13:25.490Z,10.08
2019-04-26T15:16:14.294Z,10.16
2019-04-26T15:19:02.050Z,10.18
2019-04-26T15:21:49.851Z,10.12
2019-04-26T15:24:38.624Z,10.29
2019-04-26T15:27:26.233Z,10.34
2019-04-26T15:30:14.068Z,10.35
2019-04-26T15:33:03.161Z,10.39
2019-04-26T15:35:52.144Z,10.60
2019-04-26T15:38:44.821Z,10.63
2019-04-26T15:41:47.008Z,10.77
2019-04-26T15:45:01.906Z,10.80
2019-04-26T15:48:07.282Z,10.84
2019-04-26T15:50:54.797Z,10.58
2019-04-26T15:53:43.498Z,10.78
2019-04-26T15:56:32.429Z,10.76
2019-04-26T15:59:25.351Z,10.66
2019-04-26T16:02:12.878Z,10.75
2019-04-26T16:05:02.219Z,10.67
2019-04-26T16:07:49.952Z,10.54
2019-04-26T16:10:38.510Z,10.54
2019-04-26T16:13:26.192Z,10.47
2019-04-26T16:16:16.464Z,10.42
2019-04-26T16:19:03.382Z,10.36
2019-04-26T16:21:52.789Z,10.45
2019-04-26T16:24:39.843Z,10.48
2019-04-26T16:27:32.346Z,10.50
2019-04-26T16:30:28.432Z,10.57
2019-04-26T16:33:19.093Z,10.59
2019-04-26T16:36:06.463Z,10.58
2019-04-26T16:38:56.636Z,10.65
2019-04-26T16:41:43.346Z,10.71
2019-04-26T16:44:31.815Z,10.71
2019-04-26T16:47:20.066Z,10.67
2019-04-26T16:50:08.349Z,10.78
2019-04-26T16:52:55.804Z,10.87
2019-04-26T16:55:52.164Z,10.91
2019-04-26T16:58:38.285Z,10.88
2019-04-26T17:01:23.465Z,10.80
2019-04-26T17:04:12.327Z,10.74
2019-04-26T17:07:04.290Z,10.65
2019-04-26T17:09:57.320Z,10.64
2019-04-26T17:12:39.085Z,10.58
2019-04-26T17:15:26.578Z,10.51
2019-04-26T17:18:14.048Z,10.36
2019-04-26T17:21:02.586Z,10.42
2019-04-26T17:24:00.792Z,10.25
2019-04-26T17:26:49.858Z,10.23
2019-04-26T17:29:37.295Z,10.21
2019-04-26T17:32:24.744Z,10.03
2019-04-26T17:35:12.282Z,9.99
2019-04-26T17:38:02.067Z,9.89
2019-04-26T17:40:50.497Z,9.82
2019-04-26T17:43:42.310Z,9.68
2019-04-26T17:46:27.268Z,9.63
2019-04-26T17:49:15.007Z,9.50
2019-04-26T17:52:02.846Z,9.28
2019-04-26T17:54:52.067Z,9.22
2019-04-26T17:57:42.359Z,9.20
2019-04-26T18:00:44.644Z,9.27
2019-04-26T18:03:18.348Z,9.29
2019-04-26T18:06:09.494Z,9.20
2019-04-26T18:08:55.246Z,9.07
2019-04-26T18:11:43.443Z,9.09
2019-04-26T18:14:32.113Z,9.02
2019-04-26T18:17:41.783Z,8.96
2019-04-26T18:20:48.191Z,8.89
2019-04-26T18:23:35.486Z,8.73
2019-04-26T18:26:24.446Z,8.71
2019-04-26T18:29:13.121Z,8.67
2019-04-26T18:32:03.659Z,8.58
2019-04-26T18:34:50.150Z,8.44
2019-04-26T18:37:39.484Z,8.36
2019-04-26T18:40:27.014Z,8.30
2019-04-26T18:43:18.895Z,7.99
2019-04-26T18:46:09.013Z,7.94
2019-04-26T18:48:57.092Z,7.91
2019-04-26T18:51:48.445Z,7.93
2019-04-26T18:54:57.144Z,7.90
2019-04-26T18:57:47.294Z,7.79
2019-04-26T19:00:37.306Z,7.77
2019-04-26T19:03:29.986Z,7.70
2019-04-26T19:06:26.818Z,7.66
2019-04-26T19:09:05.909Z,7.65
2019-04-26T19:11:56.005Z,7.67
2019-04-26T19:15:04.454Z,7.67
2019-04-26T19:17:56.384Z,7.60
2019-04-26T19:20:49.548Z,7.50
2019-04-26T19:23:37.358Z,7.46
2019-04-26T19:26:33.032Z,7.43
2019-04-26T19:29:18.076Z,7.41
2019-04-26T19:32:04.624Z,7.35
2019-04-26T19:34:52.562Z,7.35
2019-04-26T19:37:39.876Z,7.43
2019-04-26T19:40:27.675Z,7.35
2019-04-26T19:43:27.733Z,7.25
2019-04-26T19:46:25.762Z,7.23
2019-04-26T19:49:41.580Z,7.11
2019-04-26T19:52:39.580Z,7.20
2019-04-26T19:55:47.378Z,7.18
2019-04-26T19:58:36.007Z,6.99
2019-04-26T20:01:24.993Z,6.96
2019-04-26T20:04:13.585Z,6.94
2019-04-26T20:07:01.486Z,6.93
2019-04-26T20:09:48.769Z,6.81
2019-04-26T20:12:38.119Z,6.80
2019-04-26T20:15:28.688Z,6.86
2019-04-26T20:18:17.464Z,6.84
2019-04-26T20:21:06.518Z,6.65
2019-04-26T20:23:54.536Z,6.69
2019-04-26T20:26:44.714Z,6.78
2019-04-26T20:29:32.303Z,6.84
2019-04-26T20:32:42.018Z,6.63
2019-04-26T20:35:31.865Z,6.91
2019-04-26T20:38:19.741Z,6.90
2019-04-26T20:41:07.247Z,6.75
2019-04-26T20:44:04.905Z,6.70
2019-04-26T20:46:44.333Z,6.72
2019-04-26T20:49:32.333Z,6.57
2019-04-26T20:52:24.696Z,6.59
2019-04-26T20:55:09.853Z,6.67
2019-04-26T20:57:59.877Z,6.56
2019-04-26T21:00:54.195Z,6.67
2019-04-26T21:03:41.989Z,6.70
2019-04-26T21:06:29.283Z,6.75
2019-04-26T21:09:16.174Z,6.74
2019-04-26T21:12:07.384Z,6.74
2019-04-26T21:14:53.606Z,6.72
2019-04-26T21:17:41.632Z,6.70
2019-04-26T21:20:34.522Z,6.57
2019-04-26T21:23:18.672Z,6.56
2019-04-26T21:26:28.457Z,6.49
2019-04-26T21:29:30.597Z,6.61
2019-04-26T21:32:24.562Z,6.61
2019-04-26T21:35:14.463Z,6.61
2019-04-26T21:38:06.240Z,6.59
2019-04-26T21:41:04.361Z,6.54
2019-04-26T21:43:46.797Z,6.55
2019-04-26T21:46:34.538Z,6.55
2019-04-26T21:49:24.327Z,6.45
2019-04-26T21:52:13.665Z,6.44
2019-04-26T21:55:01.454Z,6.49
2019-04-26T21:57:48.601Z,6.51
2019-04-26T22:00:55.256Z,6.58
2019-04-26T22:03:47.521Z,6.66
2019-04-26T22:06:33.475Z,6.71
2019-04-26T22:09:28.489Z,6.70
2019-04-26T22:12:17.118Z,6.82
2019-04-26T22:15:37.601Z,6.86
2019-04-26T22:18:29.957Z,6.98
2019-04-26T22:21:28.873Z,7.00
2019-04-26T22:24:18.884Z,6.97
2019-04-26T22:27:06.796Z,7.00
2019-04-26T22:29:55.083Z,6.94
2019-04-26T22:32:42.724Z,7.01
2019-04-26T22:35:30.675Z,6.97
2019-04-26T22:38:23.748Z,7.00
2019-04-26T22:41:07.023Z,6.94
2019-04-26T22:44:08.778Z,6.96
2019-04-26T22:47:05.873Z,6.95
2019-04-26T22:49:53.349Z,6.86
2019-04-26T22:52:46.490Z,6.66
2019-04-26T22:55:30.321Z,6.76
2019-04-26T22:58:20.494Z,6.82
2019-04-26T23:01:07.739Z,7.08
2019-04-26T23:03:55.801Z,7.27
2019-04-26T23:06:46.865Z,6.93
2019-04-26T23:09:33.416Z,6.98
2019-04-26T23:12:39.778Z,6.76
2019-04-26T23:15:44.475Z,6.85
2019-04-26T23:18:50.200Z,6.81
2019-04-26T23:21:44.277Z,6.99
2019-04-26T23:24:29.486Z,7.04
2019-04-26T23:27:20.397Z,7.13
2019-04-26T23:30:06.844Z,7.31
2019-04-26T23:32:54.876Z,7.27
2019-04-26T23:35:45.696Z,7.51
2019-04-26T23:38:34.525Z,7.50
2019-04-26T23:41:21.070Z,7.50
2019-04-26T23:44:08.360Z,7.54
2019-04-26T23:47:01.160Z,7.55
2019-04-26T23:49:45.096Z,7.78
2019-04-26T23:52:33.278Z,7.71
2019-04-26T23:55:21.007Z,7.82
2019-04-26T23:58:10.782Z,7.87
